Partly Cloudy Current Weather (METAR) For Cancun Airport

All times on the weather descriptions are local

Observed at 07:41 - (25 mins ago)

Partly Cloudy

24°C

Partly Cloudy
Clouds: Scattered Clouds at 1,500ft
Wind: Calm
Visibility: 7 statute miles
QNH:
Dew Point: 24°C
Runway in Use: Unable to determine, wind is clam

Sunrise Today: 06:24
Sunset Today: 19:08

Forecast Weather (TAF) For Cancun Airport

Issued at 19:00 - (12 days ago)


Runway in Use: Unable to determine, wind is clam

Forecast valid until 19:00 on Tuesday

METAR/TAF RAW METAR / TAF

MMUN 181241Z 00000KT 7SM SCT015 24/24 A2995 RMK 8/100 SC CI

Weather Widget

Put weather from any of our airports on your website with our weather widget.

Find Another Search

Airport Search


Please Wait Please Wait - Loading
Close
Close

Login

Username:

Password:

Remember Me:

Remember me on this computer

Forgotten your password? Get a reset password sent to your registered e-mail address

Close

User Private Message

Subject:

Message: